Time;durP1;ratioP1;P1;durP2;ratioP2;P2;SDS_P1;SDS_P2;PMS_P1;PMS_P2;Temp;Humidity;BMP_temperature;BMP_pressure;BME280_temperature;BME280_humidity;BME280_pressure;Samples;Min_cycle;Max_cycle;Signal;HPM_P1;HPM_P2
2022/10/21 00:01:43;;;;;;;9.02;3.25;;;;;;;;;;5155904;27;20046;-74
2022/10/21 00:04:30;;;;;;;12.13;3.03;;;;;;;;;;5155382;27;20019;-74
2022/10/21 00:07:16;;;;;;;6.70;3.10;;;;;;;;;;5156203;27;20451;-74
2022/10/21 00:10:02;;;;;;;7.65;2.90;;;;;;;;;;5143006;27;20033;-74
2022/10/21 00:12:48;;;;;;;6.00;3.00;;;;;;;;;;5155070;27;20019;-75
2022/10/21 00:15:33;;;;;;;5.85;2.90;;;;;;;;;;5156028;27;20011;-74
2022/10/21 00:18:19;;;;;;;4.90;3.05;;;;;;;;;;5140531;27;20023;-75
2022/10/21 00:21:09;;;;;;;7.13;2.90;;;;;;;;;;5155799;27;20030;-74
2022/10/21 00:23:54;;;;;;;7.63;2.85;;;;;;;;;;5140916;27;20030;-74
2022/10/21 00:26:40;;;;;;;6.53;2.50;;;;;;;;;;5140868;27;20046;-74
2022/10/21 00:29:25;;;;;;;3.65;2.20;;;;;;;;;;5140108;27;20019;-74
2022/10/21 00:32:11;;;;;;;3.90;2.30;;;;;;;;;;5155451;27;20352;-75
2022/10/21 00:34:56;;;;;;;3.97;2.60;;;;;;;;;;5155715;27;20014;-74
2022/10/21 00:37:42;;;;;;;5.45;2.13;;;;;;;;;;5154836;27;20068;-74
2022/10/21 00:40:28;;;;;;;4.50;1.83;;;;;;;;;;5154527;27;20497;-75
2022/10/21 00:43:13;;;;;;;5.97;2.17;;;;;;;;;;5155121;27;20029;-74
2022/10/21 00:46:02;;;;;;;2.75;1.90;;;;;;;;;;5155603;27;20031;-74
2022/10/21 00:48:52;;;;;;;5.22;1.88;;;;;;;;;;5155313;27;20018;-74
2022/10/21 00:51:37;;;;;;;5.95;2.30;;;;;;;;;;5155665;27;20101;-74
2022/10/21 00:54:23;;;;;;;2.85;1.80;;;;;;;;;;5155858;27;20006;-74
2022/10/21 00:57:10;;;;;;;4.32;1.88;;;;;;;;;;5160145;27;20015;-74
2022/10/21 00:59:59;;;;;;;5.40;1.70;;;;;;;;;;5158946;27;20075;-74
2022/10/21 01:02:44;;;;;;;5.32;1.90;;;;;;;;;;5159333;27;20023;-74
2022/10/21 01:05:30;;;;;;;3.13;1.73;;;;;;;;;;5158634;27;20101;-74
2022/10/21 01:08:17;;;;;;;4.93;1.95;;;;;;;;;;5158706;27;20032;-74
2022/10/21 01:11:04;;;;;;;5.13;2.03;;;;;;;;;;5159412;27;20105;-74
2022/10/21 01:13:55;;;;;;;3.05;1.65;;;;;;;;;;5159140;27;20026;-73
2022/10/21 01:16:41;;;;;;;3.30;2.17;;;;;;;;;;5159195;27;20380;-74
2022/10/21 01:19:38;;;;;;;6.47;2.28;;;;;;;;;;5158739;27;20027;-74
2022/10/21 01:22:24;;;;;;;8.48;2.33;;;;;;;;;;5158894;27;20075;-74
2022/10/21 01:25:15;;;;;;;2.67;1.95;;;;;;;;;;5158221;27;20026;-74
2022/10/21 01:28:10;;;;;;;4.05;2.40;;;;;;;;;;5157974;27;20014;-74
2022/10/21 01:31:01;;;;;;;3.65;2.00;;;;;;;;;;5158639;27;20038;-74
2022/10/21 01:33:58;;;;;;;2.70;2.00;;;;;;;;;;5144335;27;20025;-74
2022/10/21 01:36:50;;;;;;;4.38;2.15;;;;;;;;;;5158050;27;20038;-74
2022/10/21 01:39:39;;;;;;;4.75;1.90;;;;;;;;;;5161374;27;20029;-74
2022/10/21 01:42:43;;;;;;;2.95;1.95;;;;;;;;;;5161902;27;20018;-75
2022/10/21 01:45:57;;;;;;;5.75;2.08;;;;;;;;;;5161594;27;20026;-75
2022/10/21 01:48:46;;;;;;;3.05;1.90;;;;;;;;;;5153652;27;20027;-73
2022/10/21 01:51:33;;;;;;;4.60;2.28;;;;;;;;;;5144289;27;20023;-74
2022/10/21 01:54:22;;;;;;;2.83;1.90;;;;;;;;;;5160581;27;20047;-74
2022/10/21 01:57:08;;;;;;;5.93;2.28;;;;;;;;;;5159637;27;20102;-74
2022/10/21 01:59:56;;;;;;;4.50;2.17;;;;;;;;;;5159506;27;20061;-74
2022/10/21 02:02:44;;;;;;;3.25;1.75;;;;;;;;;;5146200;27;20026;-75
2022/10/21 02:05:31;;;;;;;2.38;1.67;;;;;;;;;;5159432;27;20030;-75
2022/10/21 02:08:16;;;;;;;9.07;2.22;;;;;;;;;;5161628;27;20039;-74
2022/10/21 02:11:04;;;;;;;4.43;1.92;;;;;;;;;;5161284;27;20022;-73
2022/10/21 02:13:58;;;;;;;2.78;1.98;;;;;;;;;;5161307;27;20403;-74
2022/10/21 02:16:44;;;;;;;5.97;2.17;;;;;;;;;;5159879;27;20011;-74
2022/10/21 02:19:30;;;;;;;3.05;2.10;;;;;;;;;;5158796;27;20023;-74
2022/10/21 02:22:17;;;;;;;4.70;2.10;;;;;;;;;;5161345;27;20027;-74
2022/10/21 02:25:29;;;;;;;4.22;1.98;;;;;;;;;;5159295;27;20444;-75
2022/10/21 02:28:15;;;;;;;6.57;1.90;;;;;;;;;;5161035;27;20019;-75
2022/10/21 02:31:16;;;;;;;6.57;1.85;;;;;;;;;;5159553;27;20029;-74
2022/10/21 02:34:04;;;;;;;4.47;2.05;;;;;;;;;;5158606;27;20063;-75
2022/10/21 02:36:56;;;;;;;5.30;2.00;;;;;;;;;;5157023;27;20062;-74
2022/10/21 02:39:46;;;;;;;3.30;2.00;;;;;;;;;;5156663;27;20035;-75
2022/10/21 02:42:32;;;;;;;2.80;2.00;;;;;;;;;;5158707;27;20033;-74
2022/10/21 02:45:19;;;;;;;2.70;1.70;;;;;;;;;;5159384;27;20317;-75
2022/10/21 02:48:05;;;;;;;6.20;2.05;;;;;;;;;;5158982;27;20029;-75
2022/10/21 02:50:50;;;;;;;3.72;1.85;;;;;;;;;;5159243;27;20054;-74
2022/10/21 02:53:36;;;;;;;7.30;2.00;;;;;;;;;;5162539;27;20075;-75
2022/10/21 02:56:22;;;;;;;3.10;2.00;;;;;;;;;;5147459;27;20015;-74
2022/10/21 02:59:08;;;;;;;4.60;1.77;;;;;;;;;;5145585;27;20042;-74
2022/10/21 03:01:54;;;;;;;8.45;2.65;;;;;;;;;;5161817;27;20391;-75
2022/10/21 03:04:40;;;;;;;4.63;1.83;;;;;;;;;;5160114;27;20026;-74
2022/10/21 03:07:25;;;;;;;6.78;2.22;;;;;;;;;;5161523;27;20480;-75
2022/10/21 03:10:11;;;;;;;3.13;1.90;;;;;;;;;;5160203;27;20019;-74
2022/10/21 03:12:56;;;;;;;5.10;2.20;;;;;;;;;;5159492;27;20042;-75
2022/10/21 03:15:42;;;;;;;6.60;2.00;;;;;;;;;;5162222;27;20090;-74
2022/10/21 03:18:27;;;;;;;11.82;3.90;;;;;;;;;;5156755;27;20403;-75
2022/10/21 03:21:13;;;;;;;10.15;5.53;;;;;;;;;;5156596;27;20472;-75
2022/10/21 03:23:58;;;;;;;5.45;3.13;;;;;;;;;;5155676;27;20455;-74
2022/10/21 03:26:44;;;;;;;4.97;2.78;;;;;;;;;;5156057;27;20102;-73
2022/10/21 03:29:30;;;;;;;6.95;2.20;;;;;;;;;;5156282;27;20019;-73
2022/10/21 03:32:15;;;;;;;4.15;1.83;;;;;;;;;;5142469;27;20026;-74
2022/10/21 03:35:01;;;;;;;5.85;2.33;;;;;;;;;;5155743;27;20015;-74
2022/10/21 03:37:46;;;;;;;4.38;2.13;;;;;;;;;;5155388;27;20051;-74
2022/10/21 03:40:32;;;;;;;5.15;2.13;;;;;;;;;;5156114;27;20353;-74
2022/10/21 03:43:18;;;;;;;11.32;2.10;;;;;;;;;;5155638;27;20019;-74
2022/10/21 03:46:03;;;;;;;6.78;2.03;;;;;;;;;;5156081;27;20030;-74
2022/10/21 03:48:49;;;;;;;3.83;1.90;;;;;;;;;;5156806;27;20027;-75
2022/10/21 03:51:34;;;;;;;2.90;2.10;;;;;;;;;;5157764;27;20041;-74
2022/10/21 03:54:20;;;;;;;3.60;2.15;;;;;;;;;;5171032;27;20062;-76
2022/10/21 03:57:06;;;;;;;7.07;2.10;;;;;;;;;;5166896;27;20015;-76
2022/10/21 03:59:51;;;;;;;3.97;2.40;;;;;;;;;;5159735;27;20064;-75
2022/10/21 04:02:37;;;;;;;6.97;2.17;;;;;;;;;;5155972;27;20530;-74
2022/10/21 04:05:22;;;;;;;5.07;2.55;;;;;;;;;;5154498;27;20033;-74
2022/10/21 04:08:08;;;;;;;4.20;2.17;;;;;;;;;;5156523;27;20011;-76
2022/10/21 04:10:55;;;;;;;5.22;2.42;;;;;;;;;;5155831;27;20037;-75
2022/10/21 04:13:41;;;;;;;3.90;2.30;;;;;;;;;;5141374;27;20019;-75
2022/10/21 04:16:27;;;;;;;5.63;2.20;;;;;;;;;;5140600;27;20021;-76
2022/10/21 04:19:17;;;;;;;6.05;2.65;;;;;;;;;;5155318;27;20114;-75
2022/10/21 04:22:02;;;;;;;6.95;2.65;;;;;;;;;;5156019;27;20031;-73
2022/10/21 04:24:48;;;;;;;6.55;2.83;;;;;;;;;;5154780;27;20113;-74
2022/10/21 04:27:33;;;;;;;5.20;2.70;;;;;;;;;;5161190;27;20090;-73
2022/10/21 04:30:19;;;;;;;5.55;2.72;;;;;;;;;;5159753;27;20060;-72
2022/10/21 04:33:04;;;;;;;5.40;2.30;;;;;;;;;;5155176;27;20025;-73
2022/10/21 04:35:52;;;;;;;9.45;2.80;;;;;;;;;;5154931;27;20010;-73
2022/10/21 04:38:37;;;;;;;13.35;3.83;;;;;;;;;;5154652;27;20039;-71
2022/10/21 04:41:23;;;;;;;4.85;3.40;;;;;;;;;;5155360;27;20359;-73
2022/10/21 04:44:09;;;;;;;5.43;2.83;;;;;;;;;;5154723;27;20050;-73
2022/10/21 04:46:54;;;;;;;8.02;2.88;;;;;;;;;;5154607;27;20023;-72
2022/10/21 04:49:40;;;;;;;7.03;3.20;;;;;;;;;;5155039;27;20505;-71
2022/10/21 04:52:26;;;;;;;7.93;3.38;;;;;;;;;;5154359;27;20109;-73
2022/10/21 04:55:11;;;;;;;8.35;3.67;;;;;;;;;;5154511;27;20019;-73
2022/10/21 04:57:57;;;;;;;9.68;4.35;;;;;;;;;;5154591;27;20467;-72
2022/10/21 05:00:42;;;;;;;15.25;4.15;;;;;;;;;;5155317;27;20023;-74
2022/10/21 05:03:28;;;;;;;14.93;4.78;;;;;;;;;;5154497;27;20019;-72
2022/10/21 05:06:13;;;;;;;8.73;3.53;;;;;;;;;;5139748;27;20014;-73
2022/10/21 05:08:59;;;;;;;6.88;3.42;;;;;;;;;;5154731;27;20106;-74
2022/10/21 05:11:44;;;;;;;6.53;3.17;;;;;;;;;;5139884;27;20019;-73
2022/10/21 05:14:30;;;;;;;10.30;3.67;;;;;;;;;;5154279;27;20389;-71
2022/10/21 05:17:16;;;;;;;7.65;3.47;;;;;;;;;;5154744;27;20083;-72
2022/10/21 05:20:02;;;;;;;7.32;3.58;;;;;;;;;;5154420;27;20484;-71
2022/10/21 05:22:49;;;;;;;6.97;3.85;;;;;;;;;;5154864;27;20023;-73
2022/10/21 05:25:35;;;;;;;9.30;3.45;;;;;;;;;;5154993;27;20033;-73
2022/10/21 05:28:21;;;;;;;6.97;3.38;;;;;;;;;;5153666;27;20057;-73
2022/10/21 05:31:07;;;;;;;9.68;3.55;;;;;;;;;;5155148;27;20019;-73
2022/10/21 05:33:52;;;;;;;8.85;3.25;;;;;;;;;;5139412;27;20034;-72
2022/10/21 05:36:38;;;;;;;6.68;3.10;;;;;;;;;;5154464;27;20091;-74
2022/10/21 05:39:23;;;;;;;6.50;3.40;;;;;;;;;;5139594;27;20162;-74
2022/10/21 05:42:09;;;;;;;7.95;3.40;;;;;;;;;;5141696;27;20014;-74
2022/10/21 05:44:54;;;;;;;10.98;3.72;;;;;;;;;;5144070;27;20115;-75
2022/10/21 05:47:40;;;;;;;12.52;3.97;;;;;;;;;;5158807;27;20440;-74
2022/10/21 05:50:26;;;;;;;9.23;4.00;;;;;;;;;;5158017;27;20368;-75
2022/10/21 05:53:11;;;;;;;10.57;4.47;;;;;;;;;;5158913;27;20563;-74
2022/10/21 05:55:58;;;;;;;9.35;3.30;;;;;;;;;;5157621;27;20030;-75
2022/10/21 05:58:44;;;;;;;7.30;3.65;;;;;;;;;;5158695;27;20025;-73
2022/10/21 06:01:29;;;;;;;25.45;4.20;;;;;;;;;;5157818;27;20028;-76
2022/10/21 06:04:15;;;;;;;7.97;3.40;;;;;;;;;;5159152;27;20026;-74
2022/10/21 06:07:01;;;;;;;10.45;3.72;;;;;;;;;;5143378;27;20018;-74
2022/10/21 06:09:46;;;;;;;10.98;3.38;;;;;;;;;;5157594;27;20019;-74
2022/10/21 06:12:32;;;;;;;9.68;3.53;;;;;;;;;;5142848;27;20117;-74
2022/10/21 06:15:17;;;;;;;6.28;3.05;;;;;;;;;;5157475;27;20019;-74
2022/10/21 06:18:03;;;;;;;5.18;2.90;;;;;;;;;;5158715;27;20026;-75
2022/10/21 06:20:48;;;;;;;10.27;3.38;;;;;;;;;;5157660;27;20018;-73
2022/10/21 06:23:34;;;;;;;7.95;3.40;;;;;;;;;;5157227;27;20022;-75
2022/10/21 06:26:21;;;;;;;9.10;3.25;;;;;;;;;;5158102;27;20023;-74
2022/10/21 06:29:06;;;;;;;10.52;3.22;;;;;;;;;;5157637;27;20050;-75
2022/10/21 06:31:52;;;;;;;9.45;3.40;;;;;;;;;;5156364;27;20023;-74
2022/10/21 06:34:38;;;;;;;9.18;3.47;;;;;;;;;;5157255;27;20097;-74
2022/10/21 06:37:23;;;;;;;8.02;3.15;;;;;;;;;;5157221;27;20043;-74
2022/10/21 06:40:09;;;;;;;7.13;3.33;;;;;;;;;;5157556;27;20019;-75
2022/10/21 06:42:54;;;;;;;9.93;3.30;;;;;;;;;;5142792;27;20027;-75
2022/10/21 06:45:40;;;;;;;12.27;4.15;;;;;;;;;;5156473;27;20098;-74
2022/10/21 06:48:26;;;;;;;9.02;3.35;;;;;;;;;;5158166;27;20023;-74
2022/10/21 06:51:14;;;;;;;8.13;3.40;;;;;;;;;;5157328;27;20525;-75
2022/10/21 06:53:59;;;;;;;15.02;3.45;;;;;;;;;;5155867;27;20037;-74
2022/10/21 06:56:45;;;;;;;7.30;3.03;;;;;;;;;;5140919;27;20360;-73
2022/10/21 06:59:31;;;;;;;11.65;3.20;;;;;;;;;;5156527;27;20444;-74
2022/10/21 07:02:16;;;;;;;9.73;3.25;;;;;;;;;;5156509;27;20030;-74
2022/10/21 07:05:03;;;;;;;6.43;3.00;;;;;;;;;;5156872;27;20022;-74
2022/10/21 07:07:49;;;;;;;8.20;3.53;;;;;;;;;;5156912;27;20071;-74
2022/10/21 07:10:34;;;;;;;6.55;3.30;;;;;;;;;;5155650;27;20014;-74
2022/10/21 07:13:20;;;;;;;7.22;3.00;;;;;;;;;;5157090;27;20030;-74
2022/10/21 07:16:07;;;;;;;7.45;2.80;;;;;;;;;;5155995;27;20458;-75
2022/10/21 07:18:52;;;;;;;6.10;3.00;;;;;;;;;;5157760;27;20022;-75
2022/10/21 07:21:38;;;;;;;4.85;3.10;;;;;;;;;;5156125;27;20019;-75
2022/10/21 07:24:24;;;;;;;7.43;3.05;;;;;;;;;;5156153;27;20015;-75
2022/10/21 07:27:09;;;;;;;7.70;2.95;;;;;;;;;;5155837;27;20035;-76
2022/10/21 07:29:55;;;;;;;8.32;2.85;;;;;;;;;;5154936;27;20015;-75
2022/10/21 07:32:40;;;;;;;8.70;3.42;;;;;;;;;;5155898;27;20018;-75
2022/10/21 07:35:26;;;;;;;12.75;4.25;;;;;;;;;;5156198;27;20025;-76
2022/10/21 07:38:12;;;;;;;5.88;2.70;;;;;;;;;;5140826;27;20441;-75
2022/10/21 07:40:58;;;;;;;4.72;2.63;;;;;;;;;;5141541;27;20489;-75
2022/10/21 07:43:43;;;;;;;8.90;2.80;;;;;;;;;;5156464;27;20023;-75
2022/10/21 07:46:29;;;;;;;7.93;2.92;;;;;;;;;;5155708;27;20086;-76
2022/10/21 07:49:16;;;;;;;9.57;2.85;;;;;;;;;;5154969;27;20023;-75
2022/10/21 07:52:01;;;;;;;7.18;3.10;;;;;;;;;;5156196;27;20337;-76
2022/10/21 07:54:47;;;;;;;12.25;3.28;;;;;;;;;;5141695;27;20022;-75
2022/10/21 07:57:33;;;;;;;6.28;2.63;;;;;;;;;;5141003;27;20006;-76
2022/10/21 08:00:18;;;;;;;10.18;2.90;;;;;;;;;;5156326;27;20456;-75
2022/10/21 08:03:04;;;;;;;3.67;2.47;;;;;;;;;;5141018;27;20029;-76
2022/10/21 08:05:50;;;;;;;8.23;2.90;;;;;;;;;;5154960;27;20015;-75
2022/10/21 08:08:36;;;;;;;5.20;2.40;;;;;;;;;;5154805;27;20034;-75
2022/10/21 08:11:23;;;;;;;7.32;3.10;;;;;;;;;;5140635;27;20045;-76
2022/10/21 08:14:09;;;;;;;5.68;3.80;;;;;;;;;;5155848;27;20037;-76
2022/10/21 08:16:54;;;;;;;8.15;3.10;;;;;;;;;;5155782;27;20043;-75
2022/10/21 08:19:40;;;;;;;6.65;3.22;;;;;;;;;;5139446;27;20072;-76
2022/10/21 08:22:26;;;;;;;7.93;3.00;;;;;;;;;;5155029;27;20110;-76
2022/10/21 08:25:15;;;;;;;6.80;2.95;;;;;;;;;;5155032;27;20023;-76
2022/10/21 08:28:01;;;;;;;7.18;3.38;;;;;;;;;;5139552;27;20101;-77
2022/10/21 08:30:47;;;;;;;6.88;3.17;;;;;;;;;;5140178;27;20027;-75
2022/10/21 08:33:33;;;;;;;6.57;2.92;;;;;;;;;;5154665;27;20023;-75
2022/10/21 08:36:20;;;;;;;7.70;2.85;;;;;;;;;;5156053;27;20029;-75
2022/10/21 08:39:06;;;;;;;10.80;3.08;;;;;;;;;;5154856;27;20036;-76
2022/10/21 08:42:00;;;;;;;4.38;2.53;;;;;;;;;;5154839;27;20024;-76
2022/10/21 08:44:46;;;;;;;5.80;2.97;;;;;;;;;;5154795;27;20026;-78
2022/10/21 08:47:34;;;;;;;5.70;2.70;;;;;;;;;;5155061;27;20018;-76
2022/10/21 08:50:41;;;;;;;8.07;3.33;;;;;;;;;;5154512;27;20026;-76
2022/10/21 08:53:31;;;;;;;7.20;2.60;;;;;;;;;;5154876;27;20011;-76
2022/10/21 08:56:16;;;;;;;9.70;2.92;;;;;;;;;;5155292;27;20023;-75
2022/10/21 08:59:02;;;;;;;9.75;3.33;;;;;;;;;;5155006;27;20018;-75
2022/10/21 09:02:05;;;;;;;8.27;3.17;;;;;;;;;;5154840;27;20026;-77
2022/10/21 09:05:09;;;;;;;12.05;3.05;;;;;;;;;;5140584;27;20014;-75
2022/10/21 09:07:54;;;;;;;6.70;2.95;;;;;;;;;;5140215;27;20025;-76
2022/10/21 09:10:51;;;;;;;11.75;3.58;;;;;;;;;;5154700;27;20448;-73
2022/10/21 09:13:55;;;;;;;10.75;3.05;;;;;;;;;;5154741;27;20037;-76
2022/10/21 09:16:47;;;;;;;8.45;3.20;;;;;;;;;;5140784;27;20019;-74
2022/10/21 09:19:39;;;;;;;27.10;14.65;;;;;;;;;;5144952;27;20102;-78
2022/10/21 09:22:30;;;;;;;9.02;3.50;;;;;;;;;;5144022;27;20355;-75
2022/10/21 09:25:16;;;;;;;8.05;3.20;;;;;;;;;;5144168;27;20030;-75
2022/10/21 09:28:09;;;;;;;10.77;3.28;;;;;;;;;;5157663;27;20026;-77
2022/10/21 09:30:56;;;;;;;5.60;3.13;;;;;;;;;;5143918;27;20025;-76
2022/10/21 09:33:43;;;;;;;6.07;3.85;;;;;;;;;;5144474;27;20026;-76
2022/10/21 09:36:33;;;;;;;7.70;3.08;;;;;;;;;;5159530;27;20023;-76
2022/10/21 09:39:29;;;;;;;4.88;3.00;;;;;;;;;;5158048;27;20030;-76
2022/10/21 09:42:14;;;;;;;11.50;2.78;;;;;;;;;;5143860;27;20101;-76
2022/10/21 09:45:00;;;;;;;4.75;2.70;;;;;;;;;;5144903;27;20110;-76
2022/10/21 09:47:49;;;;;;;6.57;2.95;;;;;;;;;;5170748;27;20018;-77
2022/10/21 09:50:36;;;;;;;11.32;3.15;;;;;;;;;;5160111;27;20029;-77
2022/10/21 09:53:27;;;;;;;4.72;2.75;;;;;;;;;;5160700;27;20113;-76
2022/10/21 09:56:18;;;;;;;7.90;2.90;;;;;;;;;;5147124;27;20029;-77
2022/10/21 09:59:11;;;;;;;6.60;2.90;;;;;;;;;;5159064;27;20019;-76
2022/10/21 10:02:04;;;;;;;6.38;2.80;;;;;;;;;;5158927;27;20018;-76
2022/10/21 10:04:50;;;;;;;6.88;2.67;;;;;;;;;;5158344;27;20023;-76
2022/10/21 10:07:35;;;;;;;5.97;2.92;;;;;;;;;;5157774;27;20364;-78
2022/10/21 10:10:29;;;;;;;8.88;2.90;;;;;;;;;;5146641;27;20022;-77
2022/10/21 10:13:16;;;;;;;11.35;3.30;;;;;;;;;;5172367;27;20015;-77
2022/10/21 10:16:21;;;;;;;6.93;3.03;;;;;;;;;;5171582;27;20019;-77
2022/10/21 10:19:09;;;;;;;9.60;2.90;;;;;;;;;;5156642;27;20023;-78
2022/10/21 10:22:14;;;;;;;3.60;2.78;;;;;;;;;;5157757;27;20055;-77
2022/10/21 10:25:23;;;;;;;5.72;3.30;;;;;;;;;;5157724;27;20464;-78
2022/10/21 10:28:08;;;;;;;5.97;2.65;;;;;;;;;;5156113;27;20019;-79
2022/10/21 10:30:54;;;;;;;7.80;3.10;;;;;;;;;;5158846;27;20011;-81
2022/10/21 10:33:50;;;;;;;9.32;3.95;;;;;;;;;;5158000;27;20018;-80
2022/10/21 10:36:37;;;;;;;4.70;2.70;;;;;;;;;;5158982;27;20115;-80
2022/10/21 10:39:27;;;;;;;6.50;3.10;;;;;;;;;;5158247;27;20102;-80
2022/10/21 10:42:17;;;;;;;6.15;3.20;;;;;;;;;;5145366;27;20110;-79
2022/10/21 10:45:10;;;;;;;5.13;3.00;;;;;;;;;;5159261;27;20033;-80
2022/10/21 10:47:57;;;;;;;6.93;3.25;;;;;;;;;;5163367;27;20079;-79
2022/10/21 10:50:44;;;;;;;5.63;2.88;;;;;;;;;;5160550;27;20027;-79
2022/10/21 10:53:31;;;;;;;4.85;2.70;;;;;;;;;;5162017;27;20019;-79
2022/10/21 10:56:17;;;;;;;8.80;3.20;;;;;;;;;;5146066;27;20164;-80
2022/10/21 10:59:02;;;;;;;13.90;3.70;;;;;;;;;;5146061;27;20019;-80
2022/10/21 11:01:52;;;;;;;5.68;3.00;;;;;;;;;;5167306;27;20019;-81
2022/10/21 11:04:57;;;;;;;7.43;3.50;;;;;;;;;;5171411;27;20432;-82
2022/10/21 11:07:53;;;;;;;4.88;3.15;;;;;;;;;;5168553;27;20011;-81
2022/10/21 11:10:43;;;;;;;10.32;3.40;;;;;;;;;;5159670;27;20464;-81
2022/10/21 11:13:32;;;;;;;6.97;3.20;;;;;;;;;;5159255;27;20026;-80
2022/10/21 11:16:26;;;;;;;7.32;3.17;;;;;;;;;;5144497;27;20079;-81
2022/10/21 11:19:31;;;;;;;8.13;3.20;;;;;;;;;;5160449;27;20022;-80
2022/10/21 11:22:29;;;;;;;5.90;2.85;;;;;;;;;;5155036;27;20023;-78
2022/10/21 11:25:15;;;;;;;8.60;3.22;;;;;;;;;;5157056;27;20014;-77
2022/10/21 11:28:08;;;;;;;6.30;3.45;;;;;;;;;;5156151;27;20245;-78
2022/10/21 11:30:53;;;;;;;5.10;3.28;;;;;;;;;;5157893;27;20023;-79
2022/10/21 11:33:51;;;;;;;8.80;3.40;;;;;;;;;;5156222;27;20379;-78
2022/10/21 11:36:42;;;;;;;4.07;3.00;;;;;;;;;;5156157;27;20081;-76
2022/10/21 11:39:38;;;;;;;5.20;3.13;;;;;;;;;;5141519;27;20050;-77
2022/10/21 11:42:40;;;;;;;10.20;3.75;;;;;;;;;;5127743;27;20105;-78
2022/10/21 11:45:44;;;;;;;9.88;3.60;;;;;;;;;;5141479;27;20014;-77
2022/10/21 11:48:30;;;;;;;6.38;3.15;;;;;;;;;;5155414;27;20023;-76
2022/10/21 11:51:34;;;;;;;9.38;3.50;;;;;;;;;;5138665;27;20038;-77
2022/10/21 11:54:28;;;;;;;5.60;3.03;;;;;;;;;;5155520;27;20489;-76
2022/10/21 11:57:31;;;;;;;9.15;3.45;;;;;;;;;;5156213;27;20078;-79
2022/10/21 12:00:21;;;;;;;14.73;6.25;;;;;;;;;;5156987;27;20441;-78
2022/10/21 12:03:26;;;;;;;12.05;3.80;;;;;;;;;;5156024;27;20033;-79
2022/10/21 12:06:30;;;;;;;9.43;3.92;;;;;;;;;;5154446;27;20050;-78
2022/10/21 12:09:16;;;;;;;7.75;3.55;;;;;;;;;;5141336;27;20031;-79
2022/10/21 12:12:13;;;;;;;7.53;3.67;;;;;;;;;;5155643;27;20065;-75
2022/10/21 12:15:01;;;;;;;6.97;3.40;;;;;;;;;;5140866;27;20401;-79
2022/10/21 12:17:50;;;;;;;6.40;3.20;;;;;;;;;;5156302;27;20043;-79
2022/10/21 12:20:35;;;;;;;5.63;3.92;;;;;;;;;;5140840;27;20014;-79
2022/10/21 12:23:23;;;;;;;8.95;3.75;;;;;;;;;;5140966;27;20026;-80
2022/10/21 12:26:29;;;;;;;7.93;3.58;;;;;;;;;;5155646;27;20026;-77
2022/10/21 12:29:15;;;;;;;5.10;3.33;;;;;;;;;;5155824;27;20105;-77
2022/10/21 12:32:16;;;;;;;8.25;3.65;;;;;;;;;;5155490;27;20502;-78
2022/10/21 12:35:02;;;;;;;12.80;3.50;;;;;;;;;;5155524;27;20079;-78
2022/10/21 12:37:49;;;;;;;5.05;3.20;;;;;;;;;;5155584;27;20043;-79
2022/10/21 12:40:36;;;;;;;7.07;3.55;;;;;;;;;;5155085;27;20026;-78
2022/10/21 12:43:27;;;;;;;8.57;3.53;;;;;;;;;;5141072;27;20081;-82
2022/10/21 12:46:13;;;;;;;10.75;3.88;;;;;;;;;;5141295;27;20019;-78
2022/10/21 12:49:00;;;;;;;12.98;4.15;;;;;;;;;;5155831;27;20019;-80
2022/10/21 12:51:48;;;;;;;8.30;3.45;;;;;;;;;;5159430;27;20023;-77
2022/10/21 12:54:40;;;;;;;6.32;3.53;;;;;;;;;;5144054;27;20045;-79
2022/10/21 12:57:28;;;;;;;7.32;3.35;;;;;;;;;;5159304;27;20030;-77
2022/10/21 13:00:14;;;;;;;4.88;3.28;;;;;;;;;;5145212;27;20033;-72
2022/10/21 13:03:01;;;;;;;11.57;3.45;;;;;;;;;;5158938;27;20011;-75
2022/10/21 13:05:48;;;;;;;5.57;3.40;;;;;;;;;;5159659;27;20034;-73
2022/10/21 13:08:43;;;;;;;4.15;3.00;;;;;;;;;;5144125;27;20462;-76
2022/10/21 13:11:34;;;;;;;9.60;3.97;;;;;;;;;;5159156;27;20027;-79
2022/10/21 13:14:28;;;;;;;6.25;3.50;;;;;;;;;;5144742;27;20500;-75
2022/10/21 13:17:13;;;;;;;8.77;3.25;;;;;;;;;;5143425;27;20102;-74
2022/10/21 13:19:59;;;;;;;10.07;3.80;;;;;;;;;;5158514;27;20079;-76
2022/10/21 13:22:48;;;;;;;8.20;3.45;;;;;;;;;;5158935;27;20023;-80
2022/10/21 13:25:34;;;;;;;6.28;4.35;;;;;;;;;;5144894;27;20015;-80
2022/10/21 13:28:21;;;;;;;7.55;4.30;;;;;;;;;;5145128;27;20058;-81
2022/10/21 13:31:06;;;;;;;9.20;3.80;;;;;;;;;;5161001;27;20101;-83
2022/10/21 13:33:53;;;;;;;6.68;3.65;;;;;;;;;;5161702;27;20115;-83
2022/10/21 13:36:41;;;;;;;12.05;3.63;;;;;;;;;;5145999;27;20034;-82
2022/10/21 13:39:30;;;;;;;5.55;3.00;;;;;;;;;;5160247;27;20014;-82
2022/10/21 13:42:15;;;;;;;6.93;3.63;;;;;;;;;;5161233;27;20030;-83
2022/10/21 13:45:15;;;;;;;4.97;3.38;;;;;;;;;;5146919;27;20019;-83
2022/10/21 13:48:13;;;;;;;10.48;3.53;;;;;;;;;;5160428;27;20030;-84
2022/10/21 13:51:05;;;;;;;10.45;3.20;;;;;;;;;;5147955;27;20026;-83
2022/10/21 13:53:55;;;;;;;5.50;3.40;;;;;;;;;;5164725;27;20420;-84
2022/10/21 13:56:41;;;;;;;6.18;3.25;;;;;;;;;;5148234;27;20027;-83
2022/10/21 13:59:28;;;;;;;5.88;3.28;;;;;;;;;;5162847;27;20424;-84
2022/10/21 14:02:26;;;;;;;17.70;7.22;;;;;;;;;;5147509;27;20023;-74
2022/10/21 14:05:29;;;;;;;16.50;6.72;;;;;;;;;;5161836;27;20015;-80
2022/10/21 14:08:30;;;;;;;7.97;3.83;;;;;;;;;;5159254;27;20042;-79
2022/10/21 14:11:26;;;;;;;5.40;3.70;;;;;;;;;;5160225;27;20386;-78
2022/10/21 14:14:13;;;;;;;6.78;3.60;;;;;;;;;;5157961;27;20034;-79
2022/10/21 14:17:01;;;;;;;8.40;3.40;;;;;;;;;;5159404;27;20071;-79
2022/10/21 14:19:49;;;;;;;12.38;3.78;;;;;;;;;;5144543;27;20045;-80
2022/10/21 14:22:35;;;;;;;6.38;3.58;;;;;;;;;;5144277;27;20014;-79
2022/10/21 14:25:21;;;;;;;8.50;3.38;;;;;;;;;;5159618;27;20023;-79
2022/10/21 14:28:10;;;;;;;10.98;3.38;;;;;;;;;;5158413;27;20027;-79
2022/10/21 14:30:57;;;;;;;9.07;3.75;;;;;;;;;;5159406;27;20018;-79
2022/10/21 14:33:44;;;;;;;9.23;3.78;;;;;;;;;;5159185;27;20512;-79
2022/10/21 14:36:30;;;;;;;11.27;4.10;;;;;;;;;;5159825;27;20019;-76
2022/10/21 14:39:18;;;;;;;11.13;4.45;;;;;;;;;;5148934;27;20018;-77
2022/10/21 14:42:11;;;;;;;9.32;4.93;;;;;;;;;;5158054;27;20046;-77
2022/10/21 14:44:59;;;;;;;9.68;4.45;;;;;;;;;;5157857;27;20023;-75
2022/10/21 14:47:49;;;;;;;10.77;4.82;;;;;;;;;;5158080;27;20023;-72
2022/10/21 14:50:36;;;;;;;16.38;4.70;;;;;;;;;;5157014;27;20333;-71
2022/10/21 14:53:22;;;;;;;10.32;4.00;;;;;;;;;;5157028;27;20108;-72
2022/10/21 14:56:13;;;;;;;16.52;4.50;;;;;;;;;;5142410;27;20083;-70
2022/10/21 14:59:00;;;;;;;12.73;4.00;;;;;;;;;;5157959;27;20023;-71
2022/10/21 15:01:46;;;;;;;11.55;4.22;;;;;;;;;;5156821;27;20019;-71
2022/10/21 15:04:48;;;;;;;13.05;4.45;;;;;;;;;;5156536;27;20455;-72
2022/10/21 15:07:37;;;;;;;19.27;5.65;;;;;;;;;;5156937;27;20042;-71
2022/10/21 15:10:22;;;;;;;18.25;6.03;;;;;;;;;;5142288;27;20074;-71
2022/10/21 15:13:15;;;;;;;16.58;7.40;;;;;;;;;;5142038;27;20019;-71
2022/10/21 15:16:02;;;;;;;17.08;4.93;;;;;;;;;;5156709;27;20354;-71
2022/10/21 15:18:52;;;;;;;23.77;5.65;;;;;;;;;;5157395;27;20034;-72
2022/10/21 15:21:48;;;;;;;25.38;6.10;;;;;;;;;;5156780;27;20014;-72
2022/10/21 15:24:44;;;;;;;17.73;6.00;;;;;;;;;;5150532;27;20152;-70
2022/10/21 15:27:34;;;;;;;18.52;6.05;;;;;;;;;;5160604;27;20472;-72
2022/10/21 15:30:21;;;;;;;11.98;5.15;;;;;;;;;;5157018;27;20030;-73
2022/10/21 15:33:10;;;;;;;15.07;5.22;;;;;;;;;;5156864;27;20029;-72
2022/10/21 15:36:02;;;;;;;15.27;5.50;;;;;;;;;;5142380;27;20102;-72
2022/10/21 15:38:48;;;;;;;19.23;5.18;;;;;;;;;;5156475;27;20035;-72
2022/10/21 15:41:34;;;;;;;18.00;5.93;;;;;;;;;;5156735;27;20014;-71
2022/10/21 15:44:25;;;;;;;13.02;5.47;;;;;;;;;;5156770;27;20518;-74
2022/10/21 15:47:11;;;;;;;21.17;8.60;;;;;;;;;;5141570;27;20448;-71
2022/10/21 15:49:56;;;;;;;23.20;8.05;;;;;;;;;;5141776;27;20015;-71
2022/10/21 15:52:42;;;;;;;19.42;7.03;;;;;;;;;;5155597;27;20436;-72
2022/10/21 15:55:27;;;;;;;15.15;6.30;;;;;;;;;;5141830;27;20022;-72
2022/10/21 15:58:13;;;;;;;21.67;7.28;;;;;;;;;;5141387;27;20159;-71
2022/10/21 16:00:59;;;;;;;23.10;8.10;;;;;;;;;;5156267;27;20026;-71
2022/10/21 16:03:44;;;;;;;26.60;8.73;;;;;;;;;;5155688;27;20014;-70
2022/10/21 16:06:30;;;;;;;24.17;9.05;;;;;;;;;;5155211;27;20019;-71
2022/10/21 16:09:23;;;;;;;17.52;7.72;;;;;;;;;;5155666;27;20029;-69
2022/10/21 16:12:09;;;;;;;20.95;8.32;;;;;;;;;;5155419;27;20328;-73
2022/10/21 16:14:55;;;;;;;19.95;8.30;;;;;;;;;;5154487;27;20103;-71
2022/10/21 16:17:45;;;;;;;30.10;10.82;;;;;;;;;;5154620;27;20363;-71
2022/10/21 16:20:32;;;;;;;30.33;12.85;;;;;;;;;;5155163;27;20019;-71
2022/10/21 16:23:18;;;;;;;30.13;13.50;;;;;;;;;;5154632;27;20466;-71
2022/10/21 16:26:08;;;;;;;24.77;9.35;;;;;;;;;;5155378;27;20027;-70
2022/10/21 16:28:55;;;;;;;22.92;12.57;;;;;;;;;;5155999;27;20018;-70
2022/10/21 16:31:41;;;;;;;25.48;11.73;;;;;;;;;;5153727;27;20041;-71
2022/10/21 16:34:26;;;;;;;23.95;10.95;;;;;;;;;;5154716;27;20350;-71
2022/10/21 16:37:23;;;;;;;25.02;10.93;;;;;;;;;;5155131;27;20031;-72
2022/10/21 16:40:12;;;;;;;20.58;11.35;;;;;;;;;;5155442;27;20026;-71
2022/10/21 16:42:57;;;;;;;25.40;11.73;;;;;;;;;;5155242;27;20015;-73
2022/10/21 16:45:43;;;;;;;24.52;12.82;;;;;;;;;;5155429;27;20412;-71